sensor_id;sensor_type;location;lat;lon;timestamp;P1;durP1;ratioP1;P2;durP2;ratioP2
57893;SDS011;43710;47.460;19.034;2022-10-15T04:20:18;40.00;;;26.87;;
57893;SDS011;43710;47.460;19.034;2022-10-15T04:23:21;37.25;;;25.70;;
57893;SDS011;43710;47.460;19.034;2022-10-15T04:26:28;39.92;;;26.42;;
57893;SDS011;43710;47.460;19.034;2022-10-15T04:29:32;38.97;;;26.27;;
57893;SDS011;43710;47.460;19.034;2022-10-15T04:32:40;33.75;;;26.67;;
57893;SDS011;43710;47.460;19.034;2022-10-15T04:35:42;32.85;;;25.08;;
57893;SDS011;43710;47.460;19.034;2022-10-15T04:38:45;32.88;;;24.37;;
57893;SDS011;43710;47.460;19.034;2022-10-15T04:41:48;33.67;;;24.80;;
57893;SDS011;43710;47.460;19.034;2022-10-15T04:44:50;33.58;;;24.63;;
57893;SDS011;43710;47.460;19.034;2022-10-15T04:47:53;34.50;;;26.33;;
57893;SDS011;43710;47.460;19.034;2022-10-15T04:51:01;37.17;;;26.83;;
57893;SDS011;43710;47.460;19.034;2022-10-15T04:54:10;29.35;;;24.37;;
57893;SDS011;43710;47.460;19.034;2022-10-15T04:57:20;38.42;;;25.88;;
57893;SDS011;43710;47.460;19.034;2022-10-15T05:00:23;33.15;;;24.77;;
57893;SDS011;43710;47.460;19.034;2022-10-15T05:03:28;36.13;;;26.15;;
57893;SDS011;43710;47.460;19.034;2022-10-15T05:06:32;30.98;;;25.42;;
57893;SDS011;43710;47.460;19.034;2022-10-15T05:09:36;36.70;;;26.10;;
57893;SDS011;43710;47.460;19.034;2022-10-15T05:12:42;36.47;;;26.92;;
57893;SDS011;43710;47.460;19.034;2022-10-15T05:15:44;35.33;;;27.98;;
57893;SDS011;43710;47.460;19.034;2022-10-15T05:18:48;35.15;;;26.50;;
57893;SDS011;43710;47.460;19.034;2022-10-15T05:21:51;36.33;;;27.00;;
57893;SDS011;43710;47.460;19.034;2022-10-15T05:24:55;31.83;;;25.95;;
57893;SDS011;43710;47.460;19.034;2022-10-15T05:27:58;35.63;;;27.40;;
57893;SDS011;43710;47.460;19.034;2022-10-15T05:31:04;37.80;;;27.30;;
57893;SDS011;43710;47.460;19.034;2022-10-15T05:34:07;33.55;;;26.45;;
57893;SDS011;43710;47.460;19.034;2022-10-15T05:37:10;36.75;;;27.42;;
57893;SDS011;43710;47.460;19.034;2022-10-15T05:40:13;35.75;;;26.58;;
57893;SDS011;43710;47.460;19.034;2022-10-15T05:43:25;38.47;;;27.62;;
57893;SDS011;43710;47.460;19.034;2022-10-15T05:46:27;41.37;;;27.70;;
57893;SDS011;43710;47.460;19.034;2022-10-15T05:49:29;41.47;;;28.27;;
57893;SDS011;43710;47.460;19.034;2022-10-15T05:52:32;35.08;;;26.50;;
57893;SDS011;43710;47.460;19.034;2022-10-15T05:55:35;39.35;;;28.62;;
57893;SDS011;43710;47.460;19.034;2022-10-15T05:58:37;34.30;;;27.42;;
57893;SDS011;43710;47.460;19.034;2022-10-15T06:01:40;43.13;;;27.92;;
57893;SDS011;43710;47.460;19.034;2022-10-15T06:04:42;36.05;;;26.05;;
57893;SDS011;43710;47.460;19.034;2022-10-15T06:07:44;47.42;;;28.45;;
57893;SDS011;43710;47.460;19.034;2022-10-15T06:10:47;37.95;;;26.98;;
57893;SDS011;43710;47.460;19.034;2022-10-15T06:13:49;34.58;;;27.05;;
57893;SDS011;43710;47.460;19.034;2022-10-15T06:16:52;37.50;;;27.37;;
57893;SDS011;43710;47.460;19.034;2022-10-15T06:19:55;35.35;;;26.52;;
57893;SDS011;43710;47.460;19.034;2022-10-15T06:22:58;39.60;;;26.90;;
57893;SDS011;43710;47.460;19.034;2022-10-15T06:26:04;34.53;;;26.95;;
57893;SDS011;43710;47.460;19.034;2022-10-15T06:29:08;39.97;;;27.92;;
57893;SDS011;43710;47.460;19.034;2022-10-15T06:32:11;43.00;;;28.05;;
57893;SDS011;43710;47.460;19.034;2022-10-15T06:35:15;37.15;;;27.52;;
57893;SDS011;43710;47.460;19.034;2022-10-15T06:38:18;38.42;;;28.17;;
57893;SDS011;43710;47.460;19.034;2022-10-15T06:41:21;41.37;;;29.67;;
57893;SDS011;43710;47.460;19.034;2022-10-15T06:44:23;34.05;;;24.87;;
57893;SDS011;43710;47.460;19.034;2022-10-15T06:47:25;37.72;;;26.90;;
57893;SDS011;43710;47.460;19.034;2022-10-15T06:50:28;37.28;;;26.62;;
57893;SDS011;43710;47.460;19.034;2022-10-15T06:53:30;36.03;;;25.92;;
57893;SDS011;43710;47.460;19.034;2022-10-15T06:56:32;42.88;;;26.62;;
57893;SDS011;43710;47.460;19.034;2022-10-15T06:59:37;33.10;;;24.40;;
57893;SDS011;43710;47.460;19.034;2022-10-15T07:02:42;36.80;;;26.20;;
57893;SDS011;43710;47.460;19.034;2022-10-15T07:05:44;39.08;;;25.98;;
57893;SDS011;43710;47.460;19.034;2022-10-15T07:08:47;33.45;;;24.12;;
57893;SDS011;43710;47.460;19.034;2022-10-15T07:11:49;36.63;;;24.70;;
57893;SDS011;43710;47.460;19.034;2022-10-15T07:14:51;35.75;;;23.77;;
57893;SDS011;43710;47.460;19.034;2022-10-15T07:17:54;38.88;;;25.98;;
57893;SDS011;43710;47.460;19.034;2022-10-15T07:20:57;31.30;;;22.58;;
57893;SDS011;43710;47.460;19.034;2022-10-15T07:23:59;31.90;;;22.73;;
57893;SDS011;43710;47.460;19.034;2022-10-15T07:27:02;32.50;;;23.62;;
57893;SDS011;43710;47.460;19.034;2022-10-15T07:30:18;31.40;;;23.33;;
57893;SDS011;43710;47.460;19.034;2022-10-15T07:33:20;27.08;;;21.45;;
57893;SDS011;43710;47.460;19.034;2022-10-15T07:36:25;33.72;;;21.58;;
57893;SDS011;43710;47.460;19.034;2022-10-15T07:39:27;29.83;;;21.20;;
57893;SDS011;43710;47.460;19.034;2022-10-15T07:42:29;30.30;;;20.52;;
57893;SDS011;43710;47.460;19.034;2022-10-15T07:45:32;27.15;;;21.62;;
57893;SDS011;43710;47.460;19.034;2022-10-15T07:48:35;32.58;;;21.23;;
57893;SDS011;43710;47.460;19.034;2022-10-15T07:51:37;28.35;;;22.23;;
57893;SDS011;43710;47.460;19.034;2022-10-15T07:54:40;32.05;;;21.33;;
57893;SDS011;43710;47.460;19.034;2022-10-15T07:57:43;30.02;;;21.25;;
57893;SDS011;43710;47.460;19.034;2022-10-15T08:00:45;30.80;;;22.70;;
57893;SDS011;43710;47.460;19.034;2022-10-15T08:03:48;27.58;;;22.52;;
57893;SDS011;43710;47.460;19.034;2022-10-15T08:06:50;31.85;;;20.65;;
57893;SDS011;43710;47.460;19.034;2022-10-15T08:09:52;31.27;;;21.73;;
57893;SDS011;43710;47.460;19.034;2022-10-15T08:12:54;27.92;;;21.35;;
57893;SDS011;43710;47.460;19.034;2022-10-15T08:15:56;26.33;;;20.48;;
57893;SDS011;43710;47.460;19.034;2022-10-15T08:19:01;39.60;;;22.45;;
57893;SDS011;43710;47.460;19.034;2022-10-15T08:22:03;30.48;;;20.95;;
57893;SDS011;43710;47.460;19.034;2022-10-15T08:25:06;28.08;;;18.70;;
57893;SDS011;43710;47.460;19.034;2022-10-15T08:28:09;25.10;;;19.23;;
57893;SDS011;43710;47.460;19.034;2022-10-15T08:31:11;26.70;;;17.70;;
57893;SDS011;43710;47.460;19.034;2022-10-15T08:34:14;22.25;;;16.58;;
57893;SDS011;43710;47.460;19.034;2022-10-15T08:37:16;25.10;;;16.65;;
57893;SDS011;43710;47.460;19.034;2022-10-15T08:40:19;25.67;;;15.82;;
57893;SDS011;43710;47.460;19.034;2022-10-15T08:43:24;24.33;;;16.00;;
57893;SDS011;43710;47.460;19.034;2022-10-15T08:46:39;25.17;;;16.27;;
57893;SDS011;43710;47.460;19.034;2022-10-15T08:52:52;23.58;;;17.10;;
57893;SDS011;43710;47.460;19.034;2022-10-15T08:55:56;26.17;;;15.90;;
57893;SDS011;43710;47.460;19.034;2022-10-15T09:02:38;23.62;;;13.95;;
57893;SDS011;43710;47.460;19.034;2022-10-15T09:05:56;20.80;;;13.68;;
57893;SDS011;43710;47.460;19.034;2022-10-15T09:15:47;21.80;;;14.43;;
57893;SDS011;43710;47.460;19.034;2022-10-15T09:19:13;18.92;;;13.85;;
57893;SDS011;43710;47.460;19.034;2022-10-15T09:22:22;21.77;;;14.07;;
57893;SDS011;43710;47.460;19.034;2022-10-15T09:25:31;23.00;;;14.55;;
57893;SDS011;43710;47.460;19.034;2022-10-15T09:32:12;20.25;;;13.23;;
57893;SDS011;43710;47.460;19.034;2022-10-15T09:35:39;23.23;;;13.93;;
57893;SDS011;43710;47.460;19.034;2022-10-15T09:38:59;22.65;;;14.02;;
57893;SDS011;43710;47.460;19.034;2022-10-15T09:45:24;18.25;;;12.70;;
57893;SDS011;43710;47.460;19.034;2022-10-15T09:48:26;24.42;;;12.90;;
57893;SDS011;43710;47.460;19.034;2022-10-15T09:51:50;17.30;;;12.32;;
57893;SDS011;43710;47.460;19.034;2022-10-15T09:59:00;18.70;;;11.90;;
57893;SDS011;43710;47.460;19.034;2022-10-15T10:02:20;18.30;;;12.18;;
57893;SDS011;43710;47.460;19.034;2022-10-15T10:05:29;16.90;;;11.35;;
57893;SDS011;43710;47.460;19.034;2022-10-15T10:08:35;19.60;;;11.55;;
57893;SDS011;43710;47.460;19.034;2022-10-15T10:11:53;15.48;;;11.12;;
57893;SDS011;43710;47.460;19.034;2022-10-15T10:15:40;26.73;;;11.65;;
57893;SDS011;43710;47.460;19.034;2022-10-15T10:18:23;15.80;;;11.05;;
57893;SDS011;43710;47.460;19.034;2022-10-15T10:21:30;14.60;;;10.55;;
57893;SDS011;43710;47.460;19.034;2022-10-15T10:24:34;12.63;;;9.20;;
57893;SDS011;43710;47.460;19.034;2022-10-15T10:27:41;14.70;;;9.82;;
57893;SDS011;43710;47.460;19.034;2022-10-15T10:34:00;12.80;;;8.57;;
57893;SDS011;43710;47.460;19.034;2022-10-15T10:37:04;10.93;;;9.60;;
57893;SDS011;43710;47.460;19.034;2022-10-15T10:40:42;13.70;;;9.25;;
57893;SDS011;43710;47.460;19.034;2022-10-15T10:43:39;15.55;;;8.00;;
57893;SDS011;43710;47.460;19.034;2022-10-15T10:50:31;17.08;;;7.87;;
57893;SDS011;43710;47.460;19.034;2022-10-15T10:53:41;11.30;;;7.43;;
57893;SDS011;43710;47.460;19.034;2022-10-15T10:56:50;12.00;;;8.10;;
57893;SDS011;43710;47.460;19.034;2022-10-15T10:59:54;14.05;;;7.57;;
57893;SDS011;43710;47.460;19.034;2022-10-15T11:02:57;14.70;;;7.78;;
57893;SDS011;43710;47.460;19.034;2022-10-15T11:06:02;11.35;;;7.57;;
57893;SDS011;43710;47.460;19.034;2022-10-15T11:09:10;12.98;;;7.37;;
57893;SDS011;43710;47.460;19.034;2022-10-15T11:16:10;12.77;;;6.93;;
57893;SDS011;43710;47.460;19.034;2022-10-15T11:19:28;13.23;;;6.85;;
57893;SDS011;43710;47.460;19.034;2022-10-15T11:26:29;9.70;;;6.87;;
57893;SDS011;43710;47.460;19.034;2022-10-15T11:36:53;10.57;;;6.70;;
57893;SDS011;43710;47.460;19.034;2022-10-15T11:40:17;12.88;;;7.00;;
57893;SDS011;43710;47.460;19.034;2022-10-15T11:43:40;52.38;;;9.15;;
